sensor_id;sensor_type;location;lat;lon;timestamp;temperature;humidity
11639;DHT22;5875;35.940;126.892;2023-04-24T00:02:02;18.30;99.90
11639;DHT22;5875;35.940;126.892;2023-04-24T00:04:30;18.70;99.90
11639;DHT22;5875;35.940;126.892;2023-04-24T00:06:58;18.20;99.90
11639;DHT22;5875;35.940;126.892;2023-04-24T00:09:26;17.80;99.90
11639;DHT22;5875;35.940;126.892;2023-04-24T00:11:53;18.40;99.90
11639;DHT22;5875;35.940;126.892;2023-04-24T00:14:21;18.90;99.90
11639;DHT22;5875;35.940;126.892;2023-04-24T00:16:48;18.60;99.90
11639;DHT22;5875;35.940;126.892;2023-04-24T00:19:15;18.80;99.90
11639;DHT22;5875;35.940;126.892;2023-04-24T00:21:43;19.10;99.90
11639;DHT22;5875;35.940;126.892;2023-04-24T00:24:10;18.70;99.90
11639;DHT22;5875;35.940;126.892;2023-04-24T00:26:37;18.90;99.90
11639;DHT22;5875;35.940;126.892;2023-04-24T00:29:04;18.10;99.90
11639;DHT22;5875;35.940;126.892;2023-04-24T00:31:32;18.40;99.90
11639;DHT22;5875;35.940;126.892;2023-04-24T00:34:02;19.00;99.90
11639;DHT22;5875;35.940;126.892;2023-04-24T00:36:29;18.70;99.90
11639;DHT22;5875;35.940;126.892;2023-04-24T00:38:57;19.10;99.90
11639;DHT22;5875;35.940;126.892;2023-04-24T00:41:27;19.50;99.90
11639;DHT22;5875;35.940;126.892;2023-04-24T00:43:54;19.90;99.90
11639;DHT22;5875;35.940;126.892;2023-04-24T00:46:22;20.20;99.60
11639;DHT22;5875;35.940;126.892;2023-04-24T00:48:49;20.30;94.60
11639;DHT22;5875;35.940;126.892;2023-04-24T00:51:17;20.30;91.70
11639;DHT22;5875;35.940;126.892;2023-04-24T00:53:44;20.40;86.30
11639;DHT22;5875;35.940;126.892;2023-04-24T00:56:12;20.40;81.10
11639;DHT22;5875;35.940;126.892;2023-04-24T00:58:39;20.30;75.20
11639;DHT22;5875;35.940;126.892;2023-04-24T01:01:08;20.10;67.70
11639;DHT22;5875;35.940;126.892;2023-04-24T01:03:36;20.00;65.80
11639;DHT22;5875;35.940;126.892;2023-04-24T01:06:03;20.10;64.70
11639;DHT22;5875;35.940;126.892;2023-04-24T01:08:31;20.10;62.00
11639;DHT22;5875;35.940;126.892;2023-04-24T01:11:00;20.20;61.30
11639;DHT22;5875;35.940;126.892;2023-04-24T01:13:29;20.10;59.00
11639;DHT22;5875;35.940;126.892;2023-04-24T01:15:58;20.10;57.30
11639;DHT22;5875;35.940;126.892;2023-04-24T01:18:25;20.20;58.40
11639;DHT22;5875;35.940;126.892;2023-04-24T01:20:56;20.30;58.80
11639;DHT22;5875;35.940;126.892;2023-04-24T01:23:24;20.30;54.10
11639;DHT22;5875;35.940;126.892;2023-04-24T01:25:51;20.20;44.40
11639;DHT22;5875;35.940;126.892;2023-04-24T01:28:19;20.10;41.70
11639;DHT22;5875;35.940;126.892;2023-04-24T01:30:46;20.20;35.20
11639;DHT22;5875;35.940;126.892;2023-04-24T01:33:14;20.10;33.40
11639;DHT22;5875;35.940;126.892;2023-04-24T01:35:43;19.80;37.20
11639;DHT22;5875;35.940;126.892;2023-04-24T01:38:10;19.80;35.80
11639;DHT22;5875;35.940;126.892;2023-04-24T01:40:38;20.00;33.80
11639;DHT22;5875;35.940;126.892;2023-04-24T01:43:05;19.70;29.80
11639;DHT22;5875;35.940;126.892;2023-04-24T01:45:33;19.80;32.50
11639;DHT22;5875;35.940;126.892;2023-04-24T01:48:00;19.50;28.60
11639;DHT22;5875;35.940;126.892;2023-04-24T01:50:28;19.10;27.10
11639;DHT22;5875;35.940;126.892;2023-04-24T01:52:55;19.50;27.20
11639;DHT22;5875;35.940;126.892;2023-04-24T01:55:22;19.60;29.10
11639;DHT22;5875;35.940;126.892;2023-04-24T01:57:51;19.80;28.70
11639;DHT22;5875;35.940;126.892;2023-04-24T02:00:19;20.00;26.00
11639;DHT22;5875;35.940;126.892;2023-04-24T02:02:46;20.10;26.30
11639;DHT22;5875;35.940;126.892;2023-04-24T02:05:13;20.50;33.40
11639;DHT22;5875;35.940;126.892;2023-04-24T02:07:41;20.80;39.10
11639;DHT22;5875;35.940;126.892;2023-04-24T02:10:09;20.90;40.70
11639;DHT22;5875;35.940;126.892;2023-04-24T02:12:36;21.30;40.70
11639;DHT22;5875;35.940;126.892;2023-04-24T02:15:04;21.60;41.40
11639;DHT22;5875;35.940;126.892;2023-04-24T02:17:31;21.90;39.40
11639;DHT22;5875;35.940;126.892;2023-04-24T02:19:58;22.50;41.10
11639;DHT22;5875;35.940;126.892;2023-04-24T02:22:26;23.10;38.10
11639;DHT22;5875;35.940;126.892;2023-04-24T02:24:53;23.10;30.60
11639;DHT22;5875;35.940;126.892;2023-04-24T02:27:20;23.40;31.30
11639;DHT22;5875;35.940;126.892;2023-04-24T02:29:47;23.50;23.10
11639;DHT22;5875;35.940;126.892;2023-04-24T02:32:14;23.60;23.20
11639;DHT22;5875;35.940;126.892;2023-04-24T02:34:42;23.90;21.90
11639;DHT22;5875;35.940;126.892;2023-04-24T02:37:09;23.90;23.20
11639;DHT22;5875;35.940;126.892;2023-04-24T14:12:01;23.90;21.30
11639;DHT22;5875;35.940;126.892;2023-04-24T14:14:30;14.20;77.60
11639;DHT22;5875;35.940;126.892;2023-04-24T14:16:57;13.70;90.00
11639;DHT22;5875;35.940;126.892;2023-04-24T14:19:25;13.40;96.10
11639;DHT22;5875;35.940;126.892;2023-04-24T14:21:52;13.10;99.90
11639;DHT22;5875;35.940;126.892;2023-04-24T14:24:20;13.10;99.90
11639;DHT22;5875;35.940;126.892;2023-04-24T14:26:47;13.00;99.90
11639;DHT22;5875;35.940;126.892;2023-04-24T14:29:14;12.80;99.90
11639;DHT22;5875;35.940;126.892;2023-04-24T14:31:43;12.70;99.90
11639;DHT22;5875;35.940;126.892;2023-04-24T14:34:10;12.90;99.90
11639;DHT22;5875;35.940;126.892;2023-04-24T14:36:38;12.70;99.90
11639;DHT22;5875;35.940;126.892;2023-04-24T14:39:05;12.70;99.90
11639;DHT22;5875;35.940;126.892;2023-04-24T14:41:33;12.50;99.90
11639;DHT22;5875;35.940;126.892;2023-04-24T14:44:04;12.40;99.90
11639;DHT22;5875;35.940;126.892;2023-04-24T14:46:31;12.50;99.90
11639;DHT22;5875;35.940;126.892;2023-04-24T14:48:59;12.40;99.90
11639;DHT22;5875;35.940;126.892;2023-04-24T14:51:26;12.30;99.90
11639;DHT22;5875;35.940;126.892;2023-04-24T14:53:53;12.30;99.90
11639;DHT22;5875;35.940;126.892;2023-04-24T14:56:21;12.30;99.90
11639;DHT22;5875;35.940;126.892;2023-04-24T14:58:48;12.30;99.90
11639;DHT22;5875;35.940;126.892;2023-04-24T15:01:15;12.40;99.90
11639;DHT22;5875;35.940;126.892;2023-04-24T15:03:42;12.40;99.90
11639;DHT22;5875;35.940;126.892;2023-04-24T15:06:09;12.50;99.90
11639;DHT22;5875;35.940;126.892;2023-04-24T15:08:37;12.60;99.90
11639;DHT22;5875;35.940;126.892;2023-04-24T15:11:04;12.30;99.90
11639;DHT22;5875;35.940;126.892;2023-04-24T15:13:32;12.20;99.90
11639;DHT22;5875;35.940;126.892;2023-04-24T15:15:59;12.60;99.90
11639;DHT22;5875;35.940;126.892;2023-04-24T15:18:26;13.00;99.90
11639;DHT22;5875;35.940;126.892;2023-04-24T15:20:55;13.30;99.90
11639;DHT22;5875;35.940;126.892;2023-04-24T15:23:22;13.40;99.90
11639;DHT22;5875;35.940;126.892;2023-04-24T15:25:50;13.40;99.90
11639;DHT22;5875;35.940;126.892;2023-04-24T15:28:17;13.40;99.00
11639;DHT22;5875;35.940;126.892;2023-04-24T15:30:44;13.60;98.30
11639;DHT22;5875;35.940;126.892;2023-04-24T15:33:11;13.60;94.50
11639;DHT22;5875;35.940;126.892;2023-04-24T15:35:39;13.60;98.30
11639;DHT22;5875;35.940;126.892;2023-04-24T15:38:07;13.70;99.40
11639;DHT22;5875;35.940;126.892;2023-04-24T15:40:34;13.70;97.20
11639;DHT22;5875;35.940;126.892;2023-04-24T15:43:01;13.70;96.20
11639;DHT22;5875;35.940;126.892;2023-04-24T15:45:29;13.80;94.00
11639;DHT22;5875;35.940;126.892;2023-04-24T15:47:56;13.80;94.70
11639;DHT22;5875;35.940;126.892;2023-04-24T15:50:23;13.90;95.40
11639;DHT22;5875;35.940;126.892;2023-04-24T15:52:51;13.90;94.80
11639;DHT22;5875;35.940;126.892;2023-04-24T15:55:18;13.70;95.00
11639;DHT22;5875;35.940;126.892;2023-04-24T15:57:45;13.80;95.90
11639;DHT22;5875;35.940;126.892;2023-04-24T16:00:13;13.70;95.50
11639;DHT22;5875;35.940;126.892;2023-04-24T16:02:40;13.60;97.30
11639;DHT22;5875;35.940;126.892;2023-04-24T16:05:08;13.70;96.80
11639;DHT22;5875;35.940;126.892;2023-04-24T16:07:36;13.70;96.40
11639;DHT22;5875;35.940;126.892;2023-04-24T16:10:03;13.80;97.80
11639;DHT22;5875;35.940;126.892;2023-04-24T16:12:31;13.60;97.70
11639;DHT22;5875;35.940;126.892;2023-04-24T16:14:58;13.70;98.60
11639;DHT22;5875;35.940;126.892;2023-04-24T16:17:25;13.80;98.40
11639;DHT22;5875;35.940;126.892;2023-04-24T16:19:52;13.70;99.80
11639;DHT22;5875;35.940;126.892;2023-04-24T16:22:20;13.80;99.60
11639;DHT22;5875;35.940;126.892;2023-04-24T16:24:47;13.80;99.90
11639;DHT22;5875;35.940;126.892;2023-04-24T16:27:14;13.80;99.90
11639;DHT22;5875;35.940;126.892;2023-04-24T16:29:42;13.80;99.90
11639;DHT22;5875;35.940;126.892;2023-04-24T16:32:12;13.80;99.90
11639;DHT22;5875;35.940;126.892;2023-04-24T16:34:39;13.80;99.90
11639;DHT22;5875;35.940;126.892;2023-04-24T16:37:06;13.70;99.90
11639;DHT22;5875;35.940;126.892;2023-04-24T16:39:34;13.70;99.90
11639;DHT22;5875;35.940;126.892;2023-04-24T16:42:01;13.60;99.90
11639;DHT22;5875;35.940;126.892;2023-04-24T16:44:29;13.70;99.90
11639;DHT22;5875;35.940;126.892;2023-04-24T16:46:56;13.70;99.90
11639;DHT22;5875;35.940;126.892;2023-04-24T16:49:23;13.60;99.90
11639;DHT22;5875;35.940;126.892;2023-04-24T16:51:56;13.70;99.90
11639;DHT22;5875;35.940;126.892;2023-04-24T16:54:23;13.70;99.90
11639;DHT22;5875;35.940;126.892;2023-04-24T16:56:51;13.70;99.70
11639;DHT22;5875;35.940;126.892;2023-04-24T16:59:19;13.80;99.90
11639;DHT22;5875;35.940;126.892;2023-04-24T17:01:46;13.60;99.40
11639;DHT22;5875;35.940;126.892;2023-04-24T17:04:14;13.60;99.90
11639;DHT22;5875;35.940;126.892;2023-04-24T17:06:41;13.70;99.90
11639;DHT22;5875;35.940;126.892;2023-04-24T17:09:08;13.70;99.90
11639;DHT22;5875;35.940;126.892;2023-04-24T17:11:38;13.70;99.90
11639;DHT22;5875;35.940;126.892;2023-04-24T17:14:05;13.70;99.90
11639;DHT22;5875;35.940;126.892;2023-04-24T17:16:32;13.60;99.90
11639;DHT22;5875;35.940;126.892;2023-04-24T17:19:00;13.60;99.90
11639;DHT22;5875;35.940;126.892;2023-04-24T17:21:27;13.30;99.90
11639;DHT22;5875;35.940;126.892;2023-04-24T17:23:54;13.30;99.90
11639;DHT22;5875;35.940;126.892;2023-04-24T17:26:22;13.30;99.90
11639;DHT22;5875;35.940;126.892;2023-04-24T17:28:49;12.90;99.90
11639;DHT22;5875;35.940;126.892;2023-04-24T17:31:19;13.00;99.90
11639;DHT22;5875;35.940;126.892;2023-04-24T17:33:47;13.20;99.90
11639;DHT22;5875;35.940;126.892;2023-04-24T17:36:14;13.40;99.90
11639;DHT22;5875;35.940;126.892;2023-04-24T17:38:42;13.50;99.90
11639;DHT22;5875;35.940;126.892;2023-04-24T17:41:09;13.50;99.90
11639;DHT22;5875;35.940;126.892;2023-04-24T17:43:36;13.40;99.90
11639;DHT22;5875;35.940;126.892;2023-04-24T17:46:03;13.50;99.90
11639;DHT22;5875;35.940;126.892;2023-04-24T17:48:33;13.50;99.90
11639;DHT22;5875;35.940;126.892;2023-04-24T17:51:01;13.60;99.90
11639;DHT22;5875;35.940;126.892;2023-04-24T17:53:28;13.60;99.90
11639;DHT22;5875;35.940;126.892;2023-04-24T17:55:55;13.70;99.90
11639;DHT22;5875;35.940;126.892;2023-04-24T17:58:29;13.60;99.90
11639;DHT22;5875;35.940;126.892;2023-04-24T18:00:57;13.30;99.90
11639;DHT22;5875;35.940;126.892;2023-04-24T18:03:24;13.40;99.90
11639;DHT22;5875;35.940;126.892;2023-04-24T18:05:51;13.60;99.90
11639;DHT22;5875;35.940;126.892;2023-04-24T18:08:19;13.60;99.90
11639;DHT22;5875;35.940;126.892;2023-04-24T18:10:46;13.70;99.90
11639;DHT22;5875;35.940;126.892;2023-04-24T18:13:14;13.80;99.90
11639;DHT22;5875;35.940;126.892;2023-04-24T18:15:41;13.80;99.90
11639;DHT22;5875;35.940;126.892;2023-04-24T18:18:11;13.80;99.90
11639;DHT22;5875;35.940;126.892;2023-04-24T18:20:39;13.70;99.90
11639;DHT22;5875;35.940;126.892;2023-04-24T18:23:06;13.70;99.90
11639;DHT22;5875;35.940;126.892;2023-04-24T18:25:33;13.70;99.90
11639;DHT22;5875;35.940;126.892;2023-04-24T18:28:00;13.70;99.90
11639;DHT22;5875;35.940;126.892;2023-04-24T18:30:28;13.70;99.90
11639;DHT22;5875;35.940;126.892;2023-04-24T18:32:58;13.60;99.90
11639;DHT22;5875;35.940;126.892;2023-04-24T18:35:25;13.60;99.90
11639;DHT22;5875;35.940;126.892;2023-04-24T18:37:52;13.70;99.90
11639;DHT22;5875;35.940;126.892;2023-04-24T18:40:19;13.70;99.90
11639;DHT22;5875;35.940;126.892;2023-04-24T18:42:47;13.80;99.90
11639;DHT22;5875;35.940;126.892;2023-04-24T18:45:14;13.80;99.90
11639;DHT22;5875;35.940;126.892;2023-04-24T18:47:42;13.80;99.90
11639;DHT22;5875;35.940;126.892;2023-04-24T18:50:10;13.70;99.90
11639;DHT22;5875;35.940;126.892;2023-04-24T18:52:37;13.70;99.90
11639;DHT22;5875;35.940;126.892;2023-04-24T18:55:05;13.70;99.90
11639;DHT22;5875;35.940;126.892;2023-04-24T18:57:32;13.80;99.90
11639;DHT22;5875;35.940;126.892;2023-04-24T19:00:00;13.80;99.90
11639;DHT22;5875;35.940;126.892;2023-04-24T19:02:27;13.70;99.90
11639;DHT22;5875;35.940;126.892;2023-04-24T19:04:54;13.80;99.90
11639;DHT22;5875;35.940;126.892;2023-04-24T19:07:22;13.80;99.90
11639;DHT22;5875;35.940;126.892;2023-04-24T19:09:49;13.80;99.90
11639;DHT22;5875;35.940;126.892;2023-04-24T19:12:17;13.80;99.90
11639;DHT22;5875;35.940;126.892;2023-04-24T19:14:45;13.80;99.90
11639;DHT22;5875;35.940;126.892;2023-04-24T19:17:12;13.80;99.90
11639;DHT22;5875;35.940;126.892;2023-04-24T19:19:39;13.80;99.90
11639;DHT22;5875;35.940;126.892;2023-04-24T19:22:07;13.70;99.90
11639;DHT22;5875;35.940;126.892;2023-04-24T19:24:34;13.70;99.90
11639;DHT22;5875;35.940;126.892;2023-04-24T19:27:01;13.70;99.90
11639;DHT22;5875;35.940;126.892;2023-04-24T19:29:28;13.70;99.90
11639;DHT22;5875;35.940;126.892;2023-04-24T19:31:56;13.70;99.90
11639;DHT22;5875;35.940;126.892;2023-04-24T19:34:24;13.70;99.90
11639;DHT22;5875;35.940;126.892;2023-04-24T19:36:51;13.70;99.90
11639;DHT22;5875;35.940;126.892;2023-04-24T19:39:19;13.70;99.90
11639;DHT22;5875;35.940;126.892;2023-04-24T19:41:46;13.70;99.90
11639;DHT22;5875;35.940;126.892;2023-04-24T19:44:13;13.70;99.90
11639;DHT22;5875;35.940;126.892;2023-04-24T19:46:42;13.60;99.90
11639;DHT22;5875;35.940;126.892;2023-04-24T19:49:10;13.70;99.90
11639;DHT22;5875;35.940;126.892;2023-04-24T19:51:37;13.60;99.90
11639;DHT22;5875;35.940;126.892;2023-04-24T19:54:05;13.60;99.90
11639;DHT22;5875;35.940;126.892;2023-04-24T19:56:32;13.30;99.90
11639;DHT22;5875;35.940;126.892;2023-04-24T19:59:00;12.60;99.90
11639;DHT22;5875;35.940;126.892;2023-04-24T20:01:27;12.60;99.90
11639;DHT22;5875;35.940;126.892;2023-04-24T20:03:54;12.90;99.90
11639;DHT22;5875;35.940;126.892;2023-04-24T20:06:22;13.10;99.90
11639;DHT22;5875;35.940;126.892;2023-04-24T20:08:49;13.30;99.90
11639;DHT22;5875;35.940;126.892;2023-04-24T20:11:16;13.30;99.90
11639;DHT22;5875;35.940;126.892;2023-04-24T20:13:43;13.40;99.90
11639;DHT22;5875;35.940;126.892;2023-04-24T20:16:11;13.40;99.90
11639;DHT22;5875;35.940;126.892;2023-04-24T20:18:38;13.40;99.90
11639;DHT22;5875;35.940;126.892;2023-04-24T20:21:05;13.50;99.90
11639;DHT22;5875;35.940;126.892;2023-04-24T20:23:32;13.40;99.90
11639;DHT22;5875;35.940;126.892;2023-04-24T20:26:00;13.20;99.90
11639;DHT22;5875;35.940;126.892;2023-04-24T20:28:27;12.60;99.90
11639;DHT22;5875;35.940;126.892;2023-04-24T20:30:56;12.60;99.90
11639;DHT22;5875;35.940;126.892;2023-04-24T20:33:23;13.00;99.90
11639;DHT22;5875;35.940;126.892;2023-04-24T20:35:51;13.10;99.90
11639;DHT22;5875;35.940;126.892;2023-04-24T20:38:18;13.20;99.90
11639;DHT22;5875;35.940;126.892;2023-04-24T20:40:47;13.40;99.90
11639;DHT22;5875;35.940;126.892;2023-04-24T20:43:15;13.40;99.90
11639;DHT22;5875;35.940;126.892;2023-04-24T20:45:42;13.50;99.90
11639;DHT22;5875;35.940;126.892;2023-04-24T20:48:10;13.40;99.90
11639;DHT22;5875;35.940;126.892;2023-04-24T20:50:38;13.60;99.90
11639;DHT22;5875;35.940;126.892;2023-04-24T20:53:05;13.70;99.90
11639;DHT22;5875;35.940;126.892;2023-04-24T20:55:34;13.70;99.90
11639;DHT22;5875;35.940;126.892;2023-04-24T20:58:02;13.80;99.90
11639;DHT22;5875;35.940;126.892;2023-04-24T21:00:29;12.70;99.90
11639;DHT22;5875;35.940;126.892;2023-04-24T21:02:56;12.00;99.90
11639;DHT22;5875;35.940;126.892;2023-04-24T21:05:24;12.10;99.90
11639;DHT22;5875;35.940;126.892;2023-04-24T21:07:51;12.30;99.90
11639;DHT22;5875;35.940;126.892;2023-04-24T21:10:24;12.60;99.90
11639;DHT22;5875;35.940;126.892;2023-04-24T21:12:52;12.80;99.90
11639;DHT22;5875;35.940;126.892;2023-04-24T21:15:19;12.90;99.90
11639;DHT22;5875;35.940;126.892;2023-04-24T21:17:46;13.10;99.90
11639;DHT22;5875;35.940;126.892;2023-04-24T21:20:13;12.70;99.90
11639;DHT22;5875;35.940;126.892;2023-04-24T21:22:41;12.70;99.90
11639;DHT22;5875;35.940;126.892;2023-04-24T21:25:08;12.60;99.90
11639;DHT22;5875;35.940;126.892;2023-04-24T21:27:36;12.90;99.90
11639;DHT22;5875;35.940;126.892;2023-04-24T21:30:04;13.00;99.90
11639;DHT22;5875;35.940;126.892;2023-04-24T21:32:32;13.30;99.90
11639;DHT22;5875;35.940;126.892;2023-04-24T21:34:59;13.40;99.90
11639;DHT22;5875;35.940;126.892;2023-04-24T21:37:26;13.50;99.90
11639;DHT22;5875;35.940;126.892;2023-04-24T21:39:54;13.40;99.90
11639;DHT22;5875;35.940;126.892;2023-04-24T21:42:21;13.60;99.90
11639;DHT22;5875;35.940;126.892;2023-04-24T21:44:48;13.60;99.90
11639;DHT22;5875;35.940;126.892;2023-04-24T21:47:15;13.60;99.90
11639;DHT22;5875;35.940;126.892;2023-04-24T21:49:43;13.70;99.90
11639;DHT22;5875;35.940;126.892;2023-04-24T21:52:10;13.70;99.90
11639;DHT22;5875;35.940;126.892;2023-04-24T21:54:37;13.70;99.90
11639;DHT22;5875;35.940;126.892;2023-04-24T21:57:05;13.70;99.90
11639;DHT22;5875;35.940;126.892;2023-04-24T21:59:33;13.30;99.90
11639;DHT22;5875;35.940;126.892;2023-04-24T22:02:01;13.00;99.90
11639;DHT22;5875;35.940;126.892;2023-04-24T22:04:28;13.20;99.90
11639;DHT22;5875;35.940;126.892;2023-04-24T22:06:55;13.20;99.90
11639;DHT22;5875;35.940;126.892;2023-04-24T22:09:22;13.30;99.90
11639;DHT22;5875;35.940;126.892;2023-04-24T22:11:49;13.40;99.90
11639;DHT22;5875;35.940;126.892;2023-04-24T22:14:17;13.10;99.90
11639;DHT22;5875;35.940;126.892;2023-04-24T22:16:44;12.90;99.90
11639;DHT22;5875;35.940;126.892;2023-04-24T22:19:13;13.00;99.90
11639;DHT22;5875;35.940;126.892;2023-04-24T22:21:41;13.30;99.90
11639;DHT22;5875;35.940;126.892;2023-04-24T22:24:08;13.40;99.90
11639;DHT22;5875;35.940;126.892;2023-04-24T22:26:36;13.40;99.90
11639;DHT22;5875;35.940;126.892;2023-04-24T22:29:03;13.40;99.90
11639;DHT22;5875;35.940;126.892;2023-04-24T22:31:30;13.50;99.90
11639;DHT22;5875;35.940;126.892;2023-04-24T22:33:57;13.60;99.90
11639;DHT22;5875;35.940;126.892;2023-04-24T22:36:25;13.70;99.90
11639;DHT22;5875;35.940;126.892;2023-04-24T22:38:52;13.80;99.90
11639;DHT22;5875;35.940;126.892;2023-04-24T22:41:21;13.80;99.90
11639;DHT22;5875;35.940;126.892;2023-04-24T22:43:48;14.00;99.90
11639;DHT22;5875;35.940;126.892;2023-04-24T22:46:16;14.10;99.90
11639;DHT22;5875;35.940;126.892;2023-04-24T22:48:43;14.00;99.90
11639;DHT22;5875;35.940;126.892;2023-04-24T22:51:12;14.00;99.90
11639;DHT22;5875;35.940;126.892;2023-04-24T22:53:39;13.50;90.50
11639;DHT22;5875;35.940;126.892;2023-04-24T22:56:07;13.70;99.90
11639;DHT22;5875;35.940;126.892;2023-04-24T22:58:38;13.80;99.90
11639;DHT22;5875;35.940;126.892;2023-04-24T23:01:05;13.70;90.60
11639;DHT22;5875;35.940;126.892;2023-04-24T23:03:32;13.60;83.80
11639;DHT22;5875;35.940;126.892;2023-04-24T23:06:01;12.90;64.10
11639;DHT22;5875;35.940;126.892;2023-04-24T23:08:28;13.00;85.50
11639;DHT22;5875;35.940;126.892;2023-04-24T23:10:56;12.90;80.10
11639;DHT22;5875;35.940;126.892;2023-04-24T23:13:24;12.70;72.80
11639;DHT22;5875;35.940;126.892;2023-04-24T23:15:52;12.80;82.00
11639;DHT22;5875;35.940;126.892;2023-04-24T23:18:19;13.00;85.80
11639;DHT22;5875;35.940;126.892;2023-04-24T23:20:46;12.70;63.00
11639;DHT22;5875;35.940;126.892;2023-04-24T23:23:14;12.80;66.80
11639;DHT22;5875;35.940;126.892;2023-04-24T23:25:41;13.00;84.30
11639;DHT22;5875;35.940;126.892;2023-04-24T23:28:09;13.30;90.30
11639;DHT22;5875;35.940;126.892;2023-04-24T23:30:36;13.40;90.00
11639;DHT22;5875;35.940;126.892;2023-04-24T23:33:03;13.50;76.20
11639;DHT22;5875;35.940;126.892;2023-04-24T23:35:30;13.20;68.70
11639;DHT22;5875;35.940;126.892;2023-04-24T23:37:58;13.30;77.70
11639;DHT22;5875;35.940;126.892;2023-04-24T23:40:25;13.20;57.40
11639;DHT22;5875;35.940;126.892;2023-04-24T23:42:52;13.00;53.50
11639;DHT22;5875;35.940;126.892;2023-04-24T23:45:19;13.10;56.50
11639;DHT22;5875;35.940;126.892;2023-04-24T23:47:47;12.90;50.90
11639;DHT22;5875;35.940;126.892;2023-04-24T23:50:14;12.90;52.00
11639;DHT22;5875;35.940;126.892;2023-04-24T23:52:41;13.10;61.50
11639;DHT22;5875;35.940;126.892;2023-04-24T23:55:08;13.30;63.30
11639;DHT22;5875;35.940;126.892;2023-04-24T23:57:36;13.40;64.30
